Weather observations for the past three days for
Pueblo Memorial Airport
Metric (Imperial)
Date Time (mdt) Wind (kph) Vis. (km) Weather Sky Cond. Temperature (ºC) Relative Humidity Wind Chill (°C) Heat Index (°C) Pressure Precipitation (cm)
Air Dwpt 6 hour altimeter (cm) sea level (mb) 1 hr 3 hr 6 hr
Max. Min.
04 19:53 N 44 G 61 16.09 Overcast and Windy SCT090 OVC110 19.4 0.6 29% 75.46 1000.5
04 18:53 N 33 16.09 A Few Clouds and Breezy FEW120 20.6 -0.6 24% 75.39 1000.0
04 17:53 N 33 G 43 16.09 Fair and Breezy CLR 23.3 -2.2 26.7 23.3 18% 75.36 999.9
04 16:53 W 28 16.09 Fair CLR 25 -5 13% 25 75.34 999.3
04 15:53 W 33 G 44 16.09 Fair and Breezy CLR 25.6 -2.8 15% 25 75.36 999.8
04 14:53 W 41 G 57 16.09 A Few Clouds and Breezy FEW110 26.1 -2.8 15% 25 75.44 1000.5
04 13:53 W 20 G 46 16.09 A Few Clouds FEW120 26.1 -5.6 12% 25 75.44 1000.4
04 12:53 W 24 G 43 16.09 Fair CLR 26.1 -5 12% 25 75.51 1000.7
04 11:53 W 28 G 41 16.09 Fair CLR 25 -3.3 25.6 10.6 15% 25 75.59 1001.5
04 10:53 W 33 G 54 16.09 Fair and Breezy CLR 24.4 -2.2 17% 24 75.64 1002.3
04 09:53 W 43 G 67 16.09 Fair and Windy CLR 22.8 -1.7 19% 75.67 1003.0
04 08:53 W 43 G 63 16.09 Fair and Windy CLR 21.1 -0.6 23% 75.72 1003.5
04 07:53 W 33 G 48 16.09 Fair and Breezy CLR 18.3 0.6 31% 75.69 1003.4
04 06:53 NW 26 G 46 16.09 Mostly Cloudy BKN110 15 -1.1 33% 75.69 1003.7
04 05:53 W 11 16.09 Fair CLR 11.1 0.6 17.2 8.9 49% 75.74 1004.6
04 04:53 SW 20 16.09 Fair CLR 10 2.2 59% 8 75.77 1005.2
04 03:53 SW 9 16.09 Fair CLR 10 1.1 54% 9 75.74 1004.5
04 02:53 SW 11 16.09 Fair CLR 8.9 0.6 56% 7 75.74 1005.1
04 01:53 NW 13 16.09 Fair CLR 11.1 0.6 49% 75.79 1005.4
04 00:53 NW 9 16.09 Fair CLR 13.3 -1.1 37% 75.84 1005.8
03 23:53 Calm 16.09 Fair CLR 17.2 -2.8 25.6 15.6 26% 75.84 1005.1
03 22:53 N 20 16.09 A Few Clouds FEW120 17.2 -2.2 27% 75.79 1004.8
03 21:53 N 13 16.09 Fair CLR 18.3 -3.3 23% 75.79 1004.6
03 20:53 NW 11 16.09 A Few Clouds FEW120 20 -3.9 20% 75.77 1004.9
03 19:53 SW 9 16.09 Fair CLR 21.7 -6.7 14% 75.72 1004.7
03 18:53 W 7 16.09 Fair CLR 23.9 -6.1 13% 24 75.72 1005.0
03 17:53 S 13 16.09 Fair CLR 25 -8.3 26.1 23.3 10% 24 75.72 1005.4
03 16:53 W 7 16.09 Fair CLR 25.6 -8.3 10% 25 75.74 1005.7
03 15:53 SW 19 G 35 16.09 Fair CLR 26.1 -8.3 10% 25 75.84 1006.6
03 14:53 NW 15 G 30 16.09 Fair CLR 25 -8.3 10% 24 75.92 1008.2
03 13:53 W 15 G 37 16.09 Fair CLR 24.4 -7.8 11% 24 76 1009.1
03 12:53 W 19 16.09 Fair CLR 23.9 -7.8 11% 24 76.1 1010.1
03 11:53 NW 30 G 41 16.09 Fair CLR 23.9 -7.8 23.9 2.8 11% 24 76.17 1011.1
03 10:53 W 22 16.09 Fair CLR 22.8 -5.6 15% 76.23 1012.0
03 09:53 W 28 G 44 16.09 Fair CLR 21.1 -3.9 18% 76.28 1012.4
03 08:53 W 15 16.09 Fair CLR 16.7 0.6 34% 76.3 1013.3
03 07:53 SW 11 16.09 Fair CLR 12.2 0.6 45% 76.33 1013.5
03 06:53 W 11 16.09 Fair CLR 7.2 0.6 63% 5 76.3 1013.6
03 05:53 W 9 16.09 Fair CLR 3.3 0 9.4 3.3 79% 1 76.28 1013.8
03 04:53 W 9 16.09 Fair CLR 3.9 0 76% 2 76.28 1013.8
03 03:53 W 13 16.09 Fair CLR 5.6 0 68% 3 76.28 1013.7
03 02:53 W 7 16.09 Fair CLR 5 1.7 79% 4 76.28 1013.9
03 01:53 Calm 16.09 Fair CLR 6.7 2.2 73% 76.3 1014.3
03 00:53 NE 6 16.09 Fair CLR 7.8 0.6 61% 76.33 1014.4
02 23:53 NE 9 16.09 Fair CLR 8.3 0 21.1 8.3 56% 7 76.33 1014.5
02 22:53 Calm 16.09 Fair CLR 8.9 -1.1 50% 76.35 1014.7
02 21:53 E 7 16.09 Fair CLR 12.2 -2.2 37% 76.35 1014.8
02 20:53 E 7 16.09 Fair CLR 13.9 -2.2 33% 76.33 1014.7
02 19:53 E 9 16.09 Fair CLR 18.3 -6.7 18% 76.3 1013.9
02 18:53 SE 15 16.09 Fair CLR 20.6 -11.1 11% 76.3 1014.3
02 17:53 Vrbl 11 16.09 Fair CLR 21.1 -10 21.7 17.2 11% 76.33 1014.9
02 16:53 Vrbl 6 16.09 Fair CLR 21.1 -9.4 12% 76.35 1015.2
02 15:53 Vrbl 7 16.09 Fair CLR 20.6 -8.3 14% 76.43 1015.9
02 14:53 S 13 G 30 16.09 Fair CLR 20.6 -6.7 15% 76.5 1016.7
02 13:53 Vrbl 7 16.09 Fair CLR 18.9 -6.1 18% 76.56 1017.6
02 12:53 Vrbl 9 16.09 Fair CLR 18.3 -7.8 16% 76.61 1018.6
02 11:53 Calm 16.09 Fair CLR 17.2 -6.1 17.8 1.7 20% 76.66 1019.3
02 10:53 Vrbl 6 16.09 Fair CLR 17.2 -5 22% 76.68 1019.8
02 09:53 Calm 16.09 Fair CLR 14.4 0.6 39% 76.71 1019.7
02 08:53 W 11 16.09 Fair CLR 10 -0.6 48% 9 76.73 1020.6
02 07:53 W 15 16.09 Fair CLR 7.8 -0.6 56% 6 76.73 1020.7
02 06:53 NW 7 16.09 Fair CLR 2.8 0 82% 1 76.71 1020.8
02 05:53 W 13 16.09 Fair CLR 2.2 -0.6 6.7 1.7 82% -1 76.68 1020.5
02 04:53 W 6 16.09 Fair CLR 2.2 0 86% 76.66 1020.3
02 03:53 NW 7 16.09 Fair CLR 3.3 1.1 86% 2 76.63 1020.0
02 02:53 W 13 16.09 Fair CLR 4.4 1.7 83% 2 76.63 1019.8
02 01:53 W 11 16.09 Fair CLR 5 2.2 82% 3 76.63 1019.7
02 00:53 Calm 16.09 Fair CLR 4.4 2.8 89% 76.63 1020.0
01 23:53 SW 11 16.09 Fair CLR 6.7 2.8 15.6 6.1 76% 5 76.61 1019.4
01 22:53 W 11 16.09 Fair CLR 6.1 2.8 80% 4 76.58 1019.2
01 21:53 SW 7 16.09 Fair CLR 9.4 2.8 64% 9 76.56 1018.7
01 20:53 SW 6 16.09 Fair CLR 11.7 0 45% 76.53 1018.1
Date Time (mdt) Wind (kph) Vis. (km) Weather Sky Cond. Air Dwpt Max. Min. Relative Humidity Wind Chill (°C) Heat Index (°C) altimeter (cm) sea level (mb) 1 hr 3 hr 6 hr
6 hour
Temperature (ºC) Pressure Precipitation (cm)